sensor_id;sensor_type;location;lat;lon;timestamp;P1;durP1;ratioP1;P2;durP2;ratioP2
10230;SDS011;62604;49.432;8.680;2023-04-21T05:05:15;15.80;;;14.27;;
10230;SDS011;62604;49.432;8.680;2023-04-21T05:07:42;15.97;;;14.33;;
10230;SDS011;62604;49.432;8.680;2023-04-21T05:10:09;15.43;;;13.93;;
10230;SDS011;62604;49.432;8.680;2023-04-21T05:12:36;14.53;;;13.23;;
10230;SDS011;62604;49.432;8.680;2023-04-21T05:15:03;14.63;;;13.30;;
10230;SDS011;62604;49.432;8.680;2023-04-21T05:17:31;15.17;;;13.83;;
10230;SDS011;62604;49.432;8.680;2023-04-21T05:19:58;15.03;;;13.53;;
10230;SDS011;62604;49.432;8.680;2023-04-21T05:22:27;14.83;;;13.47;;
10230;SDS011;62604;49.432;8.680;2023-04-21T05:24:53;15.40;;;13.90;;
10230;SDS011;62604;49.432;8.680;2023-04-21T05:27:20;13.80;;;12.60;;
10230;SDS011;62604;49.432;8.680;2023-04-21T05:29:47;15.53;;;14.03;;
10230;SDS011;62604;49.432;8.680;2023-04-21T05:32:14;14.10;;;12.97;;
10230;SDS011;62604;49.432;8.680;2023-04-21T05:34:41;14.13;;;12.90;;
10230;SDS011;62604;49.432;8.680;2023-04-21T05:37:09;14.60;;;13.20;;
10230;SDS011;62604;49.432;8.680;2023-04-21T05:39:37;15.10;;;13.63;;
10230;SDS011;62604;49.432;8.680;2023-04-21T05:42:04;13.70;;;12.40;;
10230;SDS011;62604;49.432;8.680;2023-04-21T05:44:31;14.70;;;13.30;;
10230;SDS011;62604;49.432;8.680;2023-04-21T05:46:58;15.17;;;13.77;;
10230;SDS011;62604;49.432;8.680;2023-04-21T05:49:25;14.63;;;13.30;;
10230;SDS011;62604;49.432;8.680;2023-04-21T05:51:52;14.93;;;13.63;;
10230;SDS011;62604;49.432;8.680;2023-04-21T05:54:19;14.97;;;13.57;;
10230;SDS011;62604;49.432;8.680;2023-04-21T05:56:47;14.27;;;13.00;;
10230;SDS011;62604;49.432;8.680;2023-04-21T05:59:14;16.23;;;14.60;;
10230;SDS011;62604;49.432;8.680;2023-04-21T06:01:41;13.93;;;12.80;;
10230;SDS011;62604;49.432;8.680;2023-04-21T06:04:08;15.20;;;13.80;;
10230;SDS011;62604;49.432;8.680;2023-04-21T06:06:34;14.70;;;13.43;;
10230;SDS011;62604;49.432;8.680;2023-04-21T06:09:01;14.33;;;13.03;;
10230;SDS011;62604;49.432;8.680;2023-04-21T06:11:29;16.67;;;13.50;;
10230;SDS011;62604;49.432;8.680;2023-04-21T06:13:58;14.33;;;12.93;;
10230;SDS011;62604;49.432;8.680;2023-04-21T06:16:25;14.43;;;13.13;;
10230;SDS011;62604;49.432;8.680;2023-04-21T06:18:53;14.70;;;13.40;;
10230;SDS011;62604;49.432;8.680;2023-04-21T06:21:22;13.87;;;12.73;;
10230;SDS011;62604;49.432;8.680;2023-04-21T06:23:49;14.47;;;13.17;;
10230;SDS011;62604;49.432;8.680;2023-04-21T06:26:16;14.00;;;12.70;;
10230;SDS011;62604;49.432;8.680;2023-04-21T06:28:43;14.27;;;12.97;;
10230;SDS011;62604;49.432;8.680;2023-04-21T06:31:11;15.07;;;12.93;;
10230;SDS011;62604;49.432;8.680;2023-04-21T06:33:39;15.50;;;14.10;;
10230;SDS011;62604;49.432;8.680;2023-04-21T06:36:06;7.40;;;5.13;;
10230;SDS011;62604;49.432;8.680;2023-04-21T06:38:33;6.97;;;5.57;;
10230;SDS011;62604;49.432;8.680;2023-04-21T06:41:00;8.53;;;5.40;;
10230;SDS011;62604;49.432;8.680;2023-04-21T06:43:28;10.77;;;7.17;;
10230;SDS011;62604;49.432;8.680;2023-04-21T06:45:55;15.07;;;13.67;;
10230;SDS011;62604;49.432;8.680;2023-04-21T06:48:23;12.83;;;11.83;;
10230;SDS011;62604;49.432;8.680;2023-04-21T06:50:51;14.43;;;13.17;;
10230;SDS011;62604;49.432;8.680;2023-04-21T06:53:18;15.30;;;13.90;;
10230;SDS011;62604;49.432;8.680;2023-04-21T06:55:46;17.17;;;14.10;;
10230;SDS011;62604;49.432;8.680;2023-04-21T06:58:13;14.23;;;12.83;;
10230;SDS011;62604;49.432;8.680;2023-04-21T07:00:40;13.93;;;12.73;;
10230;SDS011;62604;49.432;8.680;2023-04-21T07:03:07;14.07;;;12.87;;
10230;SDS011;62604;49.432;8.680;2023-04-21T07:05:35;14.20;;;12.87;;
10230;SDS011;62604;49.432;8.680;2023-04-21T07:08:02;14.00;;;12.80;;
10230;SDS011;62604;49.432;8.680;2023-04-21T07:10:29;14.23;;;12.97;;
10230;SDS011;62604;49.432;8.680;2023-04-21T07:12:56;14.83;;;13.43;;
10230;SDS011;62604;49.432;8.680;2023-04-21T07:15:23;14.63;;;13.33;;
10230;SDS011;62604;49.432;8.680;2023-04-21T07:17:50;15.37;;;13.80;;
10230;SDS011;62604;49.432;8.680;2023-04-21T07:20:16;14.57;;;13.37;;
10230;SDS011;62604;49.432;8.680;2023-04-21T07:22:45;15.33;;;13.67;;
10230;SDS011;62604;49.432;8.680;2023-04-21T07:25:12;14.67;;;13.47;;
10230;SDS011;62604;49.432;8.680;2023-04-21T07:27:38;14.00;;;12.80;;
10230;SDS011;62604;49.432;8.680;2023-04-21T07:30:06;14.60;;;13.40;;
10230;SDS011;62604;49.432;8.680;2023-04-21T07:32:33;14.23;;;13.03;;
10230;SDS011;62604;49.432;8.680;2023-04-21T07:35:02;14.97;;;13.67;;
10230;SDS011;62604;49.432;8.680;2023-04-21T07:37:29;13.80;;;12.73;;
10230;SDS011;62604;49.432;8.680;2023-04-21T07:39:58;14.00;;;12.90;;
10230;SDS011;62604;49.432;8.680;2023-04-21T07:42:25;14.57;;;13.23;;
10230;SDS011;62604;49.432;8.680;2023-04-21T07:44:52;14.43;;;13.30;;
10230;SDS011;62604;49.432;8.680;2023-04-21T07:47:20;15.97;;;14.53;;
10230;SDS011;62604;49.432;8.680;2023-04-21T07:49:47;15.87;;;14.47;;
10230;SDS011;62604;49.432;8.680;2023-04-21T07:52:14;14.95;;;13.48;;
10230;SDS011;62604;49.432;8.680;2023-04-21T07:54:41;15.48;;;14.18;;
10230;SDS011;62604;49.432;8.680;2023-04-21T07:57:09;14.95;;;13.65;;
10230;SDS011;62604;49.432;8.680;2023-04-21T07:59:36;14.75;;;13.55;;
10230;SDS011;62604;49.432;8.680;2023-04-21T08:02:03;15.82;;;14.43;;
10230;SDS011;62604;49.432;8.680;2023-04-21T08:04:30;15.02;;;13.85;;
10230;SDS011;62604;49.432;8.680;2023-04-21T08:06:57;14.90;;;13.70;;
10230;SDS011;62604;49.432;8.680;2023-04-21T08:09:24;15.30;;;14.00;;
10230;SDS011;62604;49.432;8.680;2023-04-21T08:11:53;15.00;;;13.80;;
10230;SDS011;62604;49.432;8.680;2023-04-21T08:14:24;16.08;;;14.57;;
10230;SDS011;62604;49.432;8.680;2023-04-21T08:16:52;15.50;;;14.25;;
10230;SDS011;62604;49.432;8.680;2023-04-21T08:19:19;15.27;;;14.07;;
10230;SDS011;62604;49.432;8.680;2023-04-21T08:21:46;16.25;;;14.85;;
10230;SDS011;62604;49.432;8.680;2023-04-21T08:24:13;15.05;;;13.85;;
10230;SDS011;62604;49.432;8.680;2023-04-21T08:26:40;15.50;;;14.30;;
10230;SDS011;62604;49.432;8.680;2023-04-21T08:29:07;15.27;;;14.07;;
10230;SDS011;62604;49.432;8.680;2023-04-21T08:31:36;15.88;;;14.57;;
10230;SDS011;62604;49.432;8.680;2023-04-21T08:34:03;16.27;;;14.85;;
10230;SDS011;62604;49.432;8.680;2023-04-21T08:36:31;16.38;;;14.90;;
10230;SDS011;62604;49.432;8.680;2023-04-21T08:38:58;16.30;;;15.05;;
10230;SDS011;62604;49.432;8.680;2023-04-21T08:41:25;15.63;;;14.43;;
10230;SDS011;62604;49.432;8.680;2023-04-21T08:43:52;14.68;;;13.65;;
10230;SDS011;62604;49.432;8.680;2023-04-21T08:46:19;16.10;;;14.80;;
10230;SDS011;62604;49.432;8.680;2023-04-21T08:48:47;16.50;;;15.10;;
10230;SDS011;62604;49.432;8.680;2023-04-21T08:51:17;16.23;;;14.93;;
10230;SDS011;62604;49.432;8.680;2023-04-21T08:53:47;16.38;;;14.77;;
10230;SDS011;62604;49.432;8.680;2023-04-21T08:56:14;16.35;;;14.82;;
10230;SDS011;62604;49.432;8.680;2023-04-21T08:58:40;16.10;;;14.68;;
10230;SDS011;62604;49.432;8.680;2023-04-21T09:01:07;16.17;;;14.88;;
10230;SDS011;62604;49.432;8.680;2023-04-21T09:03:35;15.63;;;14.40;;
10230;SDS011;62604;49.432;8.680;2023-04-21T09:06:03;15.45;;;14.25;;
10230;SDS011;62604;49.432;8.680;2023-04-21T09:08:32;15.48;;;14.27;;
10230;SDS011;62604;49.432;8.680;2023-04-21T09:11:00;15.45;;;14.25;;
10230;SDS011;62604;49.432;8.680;2023-04-21T09:13:30;15.52;;;14.32;;
10230;SDS011;62604;49.432;8.680;2023-04-21T09:15:58;15.48;;;14.27;;
10230;SDS011;62604;49.432;8.680;2023-04-21T09:18:27;15.10;;;13.98;;
10230;SDS011;62604;49.432;8.680;2023-04-21T09:21:07;15.63;;;14.43;;
10230;SDS011;62604;49.432;8.680;2023-04-21T09:23:39;16.02;;;14.73;;
10230;SDS011;62604;49.432;8.680;2023-04-21T09:26:08;15.88;;;14.57;;
10230;SDS011;62604;49.432;8.680;2023-04-21T09:28:35;15.10;;;14.00;;
10230;SDS011;62604;49.432;8.680;2023-04-21T09:31:02;15.90;;;14.52;;
10230;SDS011;62604;49.432;8.680;2023-04-21T09:33:31;15.75;;;14.48;;
10230;SDS011;62604;49.432;8.680;2023-04-21T09:36:00;16.10;;;14.70;;
10230;SDS011;62604;49.432;8.680;2023-04-21T09:38:29;15.52;;;14.32;;
10230;SDS011;62604;49.432;8.680;2023-04-21T09:40:57;14.77;;;13.68;;
10230;SDS011;62604;49.432;8.680;2023-04-21T09:43:25;15.43;;;14.27;;
10230;SDS011;62604;49.432;8.680;2023-04-21T09:45:52;15.55;;;14.35;;
10230;SDS011;62604;49.432;8.680;2023-04-21T09:48:21;15.60;;;14.40;;
10230;SDS011;62604;49.432;8.680;2023-04-21T09:50:53;15.25;;;14.15;;
10230;SDS011;62604;49.432;8.680;2023-04-21T09:53:22;16.20;;;14.93;;
10230;SDS011;62604;49.432;8.680;2023-04-21T09:55:53;15.77;;;14.57;;
10230;SDS011;62604;49.432;8.680;2023-04-21T09:58:21;15.88;;;14.68;;
10230;SDS011;62604;49.432;8.680;2023-04-21T10:00:51;16.00;;;14.80;;
10230;SDS011;62604;49.432;8.680;2023-04-21T10:03:20;15.52;;;14.30;;
10230;SDS011;62604;49.432;8.680;2023-04-21T10:05:52;15.40;;;14.20;;
10230;SDS011;62604;49.432;8.680;2023-04-21T10:08:19;15.63;;;14.52;;
10230;SDS011;62604;49.432;8.680;2023-04-21T10:10:47;15.82;;;14.43;;
10230;SDS011;62604;49.432;8.680;2023-04-21T10:13:15;15.88;;;14.38;;
10230;SDS011;62604;49.432;8.680;2023-04-21T10:15:42;15.13;;;13.93;;
10230;SDS011;62604;49.432;8.680;2023-04-21T10:18:10;15.63;;;14.43;;
10230;SDS011;62604;49.432;8.680;2023-04-21T10:20:50;15.88;;;14.60;;
10230;SDS011;62604;49.432;8.680;2023-04-21T10:23:30;15.45;;;14.15;;
10230;SDS011;62604;49.432;8.680;2023-04-21T10:26:02;15.35;;;14.15;;
10230;SDS011;62604;49.432;8.680;2023-04-21T10:28:43;15.55;;;14.35;;
10230;SDS011;62604;49.432;8.680;2023-04-21T10:31:18;15.45;;;14.25;;
10230;SDS011;62604;49.432;8.680;2023-04-21T10:36:47;15.75;;;14.55;;
10230;SDS011;62604;49.432;8.680;2023-04-21T10:39:34;15.52;;;14.32;;
10230;SDS011;62604;49.432;8.680;2023-04-21T10:42:18;15.25;;;14.05;;
10230;SDS011;62604;49.432;8.680;2023-04-21T10:45:07;15.50;;;14.30;;
10230;SDS011;62604;49.432;8.680;2023-04-21T10:47:41;15.68;;;14.43;;
10230;SDS011;62604;49.432;8.680;2023-04-21T10:50:16;15.48;;;14.27;;
10230;SDS011;62604;49.432;8.680;2023-04-21T10:52:46;15.30;;;14.13;;
10230;SDS011;62604;49.432;8.680;2023-04-21T10:55:18;15.52;;;14.30;;
10230;SDS011;62604;49.432;8.680;2023-04-21T10:57:46;14.88;;;13.73;;
10230;SDS011;62604;49.432;8.680;2023-04-21T11:00:15;15.55;;;14.32;;
10230;SDS011;62604;49.432;8.680;2023-04-21T11:02:51;14.88;;;13.77;;
10230;SDS011;62604;49.432;8.680;2023-04-21T11:05:26;15.32;;;14.13;;
10230;SDS011;62604;49.432;8.680;2023-04-21T11:08:00;15.15;;;14.05;;
10230;SDS011;62604;49.432;8.680;2023-04-21T11:10:29;15.20;;;14.10;;
10230;SDS011;62604;49.432;8.680;2023-04-21T11:13:06;15.80;;;14.48;;
10230;SDS011;62604;49.432;8.680;2023-04-21T11:15:35;15.90;;;14.68;;
10230;SDS011;62604;49.432;8.680;2023-04-21T11:18:02;15.25;;;14.15;;
10230;SDS011;62604;49.432;8.680;2023-04-21T11:20:29;15.52;;;14.23;;
10230;SDS011;62604;49.432;8.680;2023-04-21T11:22:56;15.20;;;14.10;;
10230;SDS011;62604;49.432;8.680;2023-04-21T11:25:23;15.85;;;14.55;;
10230;SDS011;62604;49.432;8.680;2023-04-21T11:27:53;14.88;;;13.77;;
10230;SDS011;62604;49.432;8.680;2023-04-21T11:30:20;15.80;;;14.40;;
10230;SDS011;62604;49.432;8.680;2023-04-21T11:32:57;14.88;;;13.75;;
10230;SDS011;62604;49.432;8.680;2023-04-21T11:35:24;15.15;;;13.95;;
10230;SDS011;62604;49.432;8.680;2023-04-21T11:37:51;15.23;;;14.00;;
10230;SDS011;62604;49.432;8.680;2023-04-21T11:40:18;14.98;;;13.77;;
10230;SDS011;62604;49.432;8.680;2023-04-21T11:42:45;15.77;;;14.48;;
10230;SDS011;62604;49.432;8.680;2023-04-21T11:45:15;15.40;;;14.20;;
10230;SDS011;62604;49.432;8.680;2023-04-21T11:47:43;14.48;;;13.38;;
10230;SDS011;62604;49.432;8.680;2023-04-21T11:50:11;14.52;;;13.43;;
10230;SDS011;62604;49.432;8.680;2023-04-21T11:52:56;14.75;;;13.40;;
10230;SDS011;62604;49.432;8.680;2023-04-21T11:55:23;15.43;;;13.95;;
10230;SDS011;62604;49.432;8.680;2023-04-21T11:57:50;14.32;;;13.20;;
10230;SDS011;62604;49.432;8.680;2023-04-21T12:00:17;14.63;;;13.43;;
10230;SDS011;62604;49.432;8.680;2023-04-21T12:02:52;14.60;;;13.43;;
10230;SDS011;62604;49.432;8.680;2023-04-21T12:05:22;14.15;;;13.00;;
10230;SDS011;62604;49.432;8.680;2023-04-21T12:07:49;14.25;;;13.20;;
10230;SDS011;62604;49.432;8.680;2023-04-21T12:10:17;14.52;;;13.32;;
10230;SDS011;62604;49.432;8.680;2023-04-21T12:12:45;14.45;;;13.35;;
10230;SDS011;62604;49.432;8.680;2023-04-21T12:15:15;14.55;;;13.35;;
10230;SDS011;62604;49.432;8.680;2023-04-21T12:17:44;14.55;;;13.35;;
10230;SDS011;62604;49.432;8.680;2023-04-21T12:20:12;14.45;;;13.35;;
10230;SDS011;62604;49.432;8.680;2023-04-21T12:22:43;14.98;;;13.77;;
10230;SDS011;62604;49.432;8.680;2023-04-21T12:25:10;14.40;;;13.20;;
10230;SDS011;62604;49.432;8.680;2023-04-21T12:27:46;14.13;;;12.98;;
10230;SDS011;62604;49.432;8.680;2023-04-21T12:30:13;14.32;;;13.05;;
10230;SDS011;62604;49.432;8.680;2023-04-21T12:32:40;14.05;;;12.90;;
10230;SDS011;62604;49.432;8.680;2023-04-21T12:35:07;13.05;;;12.05;;
10230;SDS011;62604;49.432;8.680;2023-04-21T12:37:35;14.43;;;13.30;;
10230;SDS011;62604;49.432;8.680;2023-04-21T12:40:04;13.98;;;12.68;;
10230;SDS011;62604;49.432;8.680;2023-04-21T12:42:32;14.40;;;13.30;;
10230;SDS011;62604;49.432;8.680;2023-04-21T12:44:59;14.48;;;13.25;;
10230;SDS011;62604;49.432;8.680;2023-04-21T12:47:26;14.90;;;13.60;;
10230;SDS011;62604;49.432;8.680;2023-04-21T12:49:52;14.15;;;13.05;;
10230;SDS011;62604;49.432;8.680;2023-04-21T12:52:20;14.65;;;13.50;;
10230;SDS011;62604;49.432;8.680;2023-04-21T12:54:47;14.77;;;13.48;;
10230;SDS011;62604;49.432;8.680;2023-04-21T12:57:15;14.93;;;13.73;;
10230;SDS011;62604;49.432;8.680;2023-04-21T12:59:42;15.00;;;13.80;;
10230;SDS011;62604;49.432;8.680;2023-04-21T13:02:10;14.48;;;13.38;;
10230;SDS011;62604;49.432;8.680;2023-04-21T13:04:38;14.85;;;13.75;;
10230;SDS011;62604;49.432;8.680;2023-04-21T13:07:06;14.20;;;13.10;;
10230;SDS011;62604;49.432;8.680;2023-04-21T13:09:33;14.80;;;13.68;;
10230;SDS011;62604;49.432;8.680;2023-04-21T13:12:00;15.15;;;13.75;;
10230;SDS011;62604;49.432;8.680;2023-04-21T13:14:28;15.13;;;13.77;;
10230;SDS011;62604;49.432;8.680;2023-04-21T13:16:55;14.98;;;13.77;;
10230;SDS011;62604;49.432;8.680;2023-04-21T13:19:22;15.52;;;14.30;;
10230;SDS011;62604;49.432;8.680;2023-04-21T13:21:50;16.02;;;14.52;;
10230;SDS011;62604;49.432;8.680;2023-04-21T13:24:17;13.30;;;12.20;;
10230;SDS011;62604;49.432;8.680;2023-04-21T13:26:44;14.63;;;13.52;;
10230;SDS011;62604;49.432;8.680;2023-04-21T13:29:11;15.35;;;14.13;;
10230;SDS011;62604;49.432;8.680;2023-04-21T13:31:39;14.75;;;13.57;;
10230;SDS011;62604;49.432;8.680;2023-04-21T13:34:06;16.45;;;14.90;;
10230;SDS011;62604;49.432;8.680;2023-04-21T13:36:33;14.90;;;13.70;;
10230;SDS011;62604;49.432;8.680;2023-04-21T13:39:00;15.48;;;14.07;;
10230;SDS011;62604;49.432;8.680;2023-04-21T13:41:28;14.95;;;13.73;;
10230;SDS011;62604;49.432;8.680;2023-04-21T13:43:55;15.25;;;13.93;;
10230;SDS011;62604;49.432;8.680;2023-04-21T13:46:22;15.02;;;13.82;;
10230;SDS011;62604;49.432;8.680;2023-04-21T13:48:50;14.55;;;13.40;;
10230;SDS011;62604;49.432;8.680;2023-04-21T13:51:18;15.30;;;14.00;;
10230;SDS011;62604;49.432;8.680;2023-04-21T13:53:46;15.30;;;13.90;;
10230;SDS011;62604;49.432;8.680;2023-04-21T13:56:13;14.80;;;13.52;;
10230;SDS011;62604;49.432;8.680;2023-04-21T13:58:40;14.38;;;13.27;;
10230;SDS011;62604;49.432;8.680;2023-04-21T14:01:07;14.63;;;13.48;;
10230;SDS011;62604;49.432;8.680;2023-04-21T14:03:34;15.00;;;13.80;;
10230;SDS011;62604;49.432;8.680;2023-04-21T14:06:03;14.98;;;13.68;;
10230;SDS011;62604;49.432;8.680;2023-04-21T14:08:30;14.30;;;13.05;;
10230;SDS011;62604;49.432;8.680;2023-04-21T14:10:57;13.63;;;12.63;;
10230;SDS011;62604;49.432;8.680;2023-04-21T14:13:24;14.07;;;12.98;;
10230;SDS011;62604;49.432;8.680;2023-04-21T14:15:52;14.23;;;13.10;;
10230;SDS011;62604;49.432;8.680;2023-04-21T14:18:20;15.05;;;13.73;;
10230;SDS011;62604;49.432;8.680;2023-04-21T14:20:47;14.82;;;13.45;;
10230;SDS011;62604;49.432;8.680;2023-04-21T14:23:15;15.27;;;13.98;;
10230;SDS011;62604;49.432;8.680;2023-04-21T14:25:42;14.90;;;13.60;;
10230;SDS011;62604;49.432;8.680;2023-04-21T14:28:09;15.50;;;14.10;;
10230;SDS011;62604;49.432;8.680;2023-04-21T14:30:36;14.98;;;13.77;;
10230;SDS011;62604;49.432;8.680;2023-04-21T14:33:03;14.50;;;13.30;;
10230;SDS011;62604;49.432;8.680;2023-04-21T14:35:30;14.48;;;13.32;;
10230;SDS011;62604;49.432;8.680;2023-04-21T14:37:57;14.05;;;12.90;;
10230;SDS011;62604;49.432;8.680;2023-04-21T14:40:26;14.10;;;12.90;;
10230;SDS011;62604;49.432;8.680;2023-04-21T14:42:53;14.27;;;13.18;;
10230;SDS011;62604;49.432;8.680;2023-04-21T14:45:19;13.60;;;12.60;;
10230;SDS011;62604;49.432;8.680;2023-04-21T14:47:46;14.25;;;13.05;;
10230;SDS011;62604;49.432;8.680;2023-04-21T14:50:13;14.77;;;13.57;;
10230;SDS011;62604;49.432;8.680;2023-04-21T14:52:40;14.10;;;13.00;;
10230;SDS011;62604;49.432;8.680;2023-04-21T14:55:08;13.85;;;12.75;;
10230;SDS011;62604;49.432;8.680;2023-04-21T14:57:36;14.38;;;13.18;;
10230;SDS011;62604;49.432;8.680;2023-04-21T15:00:05;13.98;;;12.88;;
10230;SDS011;62604;49.432;8.680;2023-04-21T15:02:33;14.10;;;13.00;;
10230;SDS011;62604;49.432;8.680;2023-04-21T15:05:01;14.40;;;13.30;;
10230;SDS011;62604;49.432;8.680;2023-04-21T15:07:28;14.10;;;13.00;;
10230;SDS011;62604;49.432;8.680;2023-04-21T15:09:55;14.63;;;13.32;;
10230;SDS011;62604;49.432;8.680;2023-04-21T15:12:21;13.90;;;12.77;;
10230;SDS011;62604;49.432;8.680;2023-04-21T15:14:50;13.50;;;12.23;;
10230;SDS011;62604;49.432;8.680;2023-04-21T15:17:17;14.02;;;12.82;;
10230;SDS011;62604;49.432;8.680;2023-04-21T15:19:43;13.65;;;12.60;;
10230;SDS011;62604;49.432;8.680;2023-04-21T15:22:10;14.05;;;12.95;;
10230;SDS011;62604;49.432;8.680;2023-04-21T15:24:39;14.00;;;12.98;;
10230;SDS011;62604;49.432;8.680;2023-04-21T15:27:06;13.82;;;12.75;;
10230;SDS011;62604;49.432;8.680;2023-04-21T15:29:33;13.52;;;12.43;;
10230;SDS011;62604;49.432;8.680;2023-04-21T15:32:01;13.52;;;12.43;;
10230;SDS011;62604;49.432;8.680;2023-04-21T15:34:28;14.13;;;12.93;;
10230;SDS011;62604;49.432;8.680;2023-04-21T15:36:55;14.43;;;13.30;;
10230;SDS011;62604;49.432;8.680;2023-04-21T15:39:22;13.80;;;12.65;;
10230;SDS011;62604;49.432;8.680;2023-04-21T15:41:49;14.05;;;12.98;;
10230;SDS011;62604;49.432;8.680;2023-04-21T15:44:17;14.10;;;13.00;;
10230;SDS011;62604;49.432;8.680;2023-04-21T15:46:44;14.00;;;12.82;;
10230;SDS011;62604;49.432;8.680;2023-04-21T15:49:12;13.90;;;12.82;;
10230;SDS011;62604;49.432;8.680;2023-04-21T15:51:39;14.93;;;13.68;;
10230;SDS011;62604;49.432;8.680;2023-04-21T15:54:06;14.15;;;13.05;;
10230;SDS011;62604;49.432;8.680;2023-04-21T15:56:34;14.23;;;13.13;;
10230;SDS011;62604;49.432;8.680;2023-04-21T15:59:01;14.55;;;13.38;;
10230;SDS011;62604;49.432;8.680;2023-04-21T16:01:28;14.55;;;13.45;;
10230;SDS011;62604;49.432;8.680;2023-04-21T16:03:55;14.70;;;13.50;;
10230;SDS011;62604;49.432;8.680;2023-04-21T16:06:23;14.70;;;13.60;;
10230;SDS011;62604;49.432;8.680;2023-04-21T16:08:53;15.02;;;13.68;;
10230;SDS011;62604;49.432;8.680;2023-04-21T16:11:20;14.52;;;13.20;;
10230;SDS011;62604;49.432;8.680;2023-04-21T16:13:47;15.05;;;13.65;;
10230;SDS011;62604;49.432;8.680;2023-04-21T16:16:14;14.50;;;13.20;;
10230;SDS011;62604;49.432;8.680;2023-04-21T16:18:41;15.02;;;13.55;;
10230;SDS011;62604;49.432;8.680;2023-04-21T16:21:08;15.05;;;13.65;;
10230;SDS011;62604;49.432;8.680;2023-04-21T16:23:37;14.48;;;13.32;;
10230;SDS011;62604;49.432;8.680;2023-04-21T16:26:04;13.75;;;12.65;;
10230;SDS011;62604;49.432;8.680;2023-04-21T16:28:33;14.65;;;13.43;;
10230;SDS011;62604;49.432;8.680;2023-04-21T16:31:00;15.05;;;13.82;;
10230;SDS011;62604;49.432;8.680;2023-04-21T16:33:26;14.50;;;13.30;;
10230;SDS011;62604;49.432;8.680;2023-04-21T16:35:53;14.45;;;13.30;;
10230;SDS011;62604;49.432;8.680;2023-04-21T16:38:21;15.25;;;13.95;;
10230;SDS011;62604;49.432;8.680;2023-04-21T16:40:50;15.05;;;13.75;;
10230;SDS011;62604;49.432;8.680;2023-04-21T16:43:17;15.45;;;13.95;;
10230;SDS011;62604;49.432;8.680;2023-04-21T16:45:47;14.85;;;13.55;;
10230;SDS011;62604;49.432;8.680;2023-04-21T16:48:14;12.48;;;11.45;;
10230;SDS011;62604;49.432;8.680;2023-04-21T16:50:41;11.57;;;10.77;;
10230;SDS011;62604;49.432;8.680;2023-04-21T16:53:09;11.07;;;10.38;;
10230;SDS011;62604;49.432;8.680;2023-04-21T16:55:36;10.90;;;10.20;;
10230;SDS011;62604;49.432;8.680;2023-04-21T16:58:04;11.65;;;10.75;;
10230;SDS011;62604;49.432;8.680;2023-04-21T17:00:31;11.02;;;10.32;;
10230;SDS011;62604;49.432;8.680;2023-04-21T17:03:00;11.30;;;10.50;;
10230;SDS011;62604;49.432;8.680;2023-04-21T17:05:27;11.38;;;10.57;;
10230;SDS011;62604;49.432;8.680;2023-04-21T17:07:53;11.18;;;10.48;;
10230;SDS011;62604;49.432;8.680;2023-04-21T17:10:21;11.13;;;10.43;;
10230;SDS011;62604;49.432;8.680;2023-04-21T17:12:48;11.18;;;10.48;;
10230;SDS011;62604;49.432;8.680;2023-04-21T17:15:16;11.40;;;10.60;;
10230;SDS011;62604;49.432;8.680;2023-04-21T17:17:43;10.90;;;10.20;;
10230;SDS011;62604;49.432;8.680;2023-04-21T17:20:11;11.05;;;10.27;;
10230;SDS011;62604;49.432;8.680;2023-04-21T17:22:39;11.35;;;10.57;;
10230;SDS011;62604;49.432;8.680;2023-04-21T17:25:07;11.02;;;10.32;;
10230;SDS011;62604;49.432;8.680;2023-04-21T17:27:36;11.38;;;10.68;;
10230;SDS011;62604;49.432;8.680;2023-04-21T17:30:05;11.25;;;10.45;;
10230;SDS011;62604;49.432;8.680;2023-04-21T17:32:35;11.27;;;10.52;;
10230;SDS011;62604;49.432;8.680;2023-04-21T17:35:04;11.18;;;10.40;;
10230;SDS011;62604;49.432;8.680;2023-04-21T17:37:32;11.30;;;10.50;;
10230;SDS011;62604;49.432;8.680;2023-04-21T17:40:00;11.10;;;10.40;;
10230;SDS011;62604;49.432;8.680;2023-04-21T17:42:27;11.30;;;10.50;;
10230;SDS011;62604;49.432;8.680;2023-04-21T17:44:55;12.05;;;11.10;;
10230;SDS011;62604;49.432;8.680;2023-04-21T17:47:22;11.30;;;10.50;;
10230;SDS011;62604;49.432;8.680;2023-04-21T17:49:50;11.15;;;10.35;;
10230;SDS011;62604;49.432;8.680;2023-04-21T17:52:17;11.32;;;10.52;;
10230;SDS011;62604;49.432;8.680;2023-04-21T17:54:45;11.18;;;10.38;;
10230;SDS011;62604;49.432;8.680;2023-04-21T17:57:12;10.95;;;10.25;;
10230;SDS011;62604;49.432;8.680;2023-04-21T17:59:39;11.48;;;10.68;;
10230;SDS011;62604;49.432;8.680;2023-04-21T18:02:06;11.10;;;10.40;;
10230;SDS011;62604;49.432;8.680;2023-04-21T18:04:33;11.60;;;10.70;;
10230;SDS011;62604;49.432;8.680;2023-04-21T18:07:01;11.40;;;10.60;;
10230;SDS011;62604;49.432;8.680;2023-04-21T18:09:28;11.30;;;10.50;;
10230;SDS011;62604;49.432;8.680;2023-04-21T18:11:55;11.47;;;10.67;;
10230;SDS011;62604;49.432;8.680;2023-04-21T18:14:22;11.02;;;10.32;;
10230;SDS011;62604;49.432;8.680;2023-04-21T18:16:49;11.50;;;10.70;;
10230;SDS011;62604;49.432;8.680;2023-04-21T18:19:16;11.13;;;10.43;;
10230;SDS011;62604;49.432;8.680;2023-04-21T18:21:43;11.40;;;10.60;;
10230;SDS011;62604;49.432;8.680;2023-04-21T18:24:11;11.43;;;10.60;;
10230;SDS011;62604;49.432;8.680;2023-04-21T18:26:38;11.40;;;10.63;;
10230;SDS011;62604;49.432;8.680;2023-04-21T18:29:05;11.40;;;10.60;;
10230;SDS011;62604;49.432;8.680;2023-04-21T18:31:32;11.80;;;10.90;;
10230;SDS011;62604;49.432;8.680;2023-04-21T18:33:59;11.33;;;10.53;;
10230;SDS011;62604;49.432;8.680;2023-04-21T18:36:26;12.35;;;11.45;;
10230;SDS011;62604;49.432;8.680;2023-04-21T18:38:53;12.20;;;11.37;;
10230;SDS011;62604;49.432;8.680;2023-04-21T18:41:22;12.30;;;11.33;;
10230;SDS011;62604;49.432;8.680;2023-04-21T18:43:49;13.30;;;12.30;;
10230;SDS011;62604;49.432;8.680;2023-04-21T18:46:16;14.70;;;13.60;;
10230;SDS011;62604;49.432;8.680;2023-04-21T18:48:43;16.80;;;15.50;;
10230;SDS011;62604;49.432;8.680;2023-04-21T18:51:09;16.17;;;14.87;;
10230;SDS011;62604;49.432;8.680;2023-04-21T18:53:36;18.30;;;16.90;;
10230;SDS011;62604;49.432;8.680;2023-04-21T18:56:03;18.30;;;16.80;;
10230;SDS011;62604;49.432;8.680;2023-04-21T18:58:32;19.17;;;17.43;;
10230;SDS011;62604;49.432;8.680;2023-04-21T19:00:59;17.87;;;16.03;;
10230;SDS011;62604;49.432;8.680;2023-04-21T19:03:25;16.13;;;14.80;;
10230;SDS011;62604;49.432;8.680;2023-04-21T19:05:52;16.43;;;15.10;;
10230;SDS011;62604;49.432;8.680;2023-04-21T19:08:19;15.17;;;13.97;;
10230;SDS011;62604;49.432;8.680;2023-04-21T19:10:46;14.67;;;13.57;;
10230;SDS011;62604;49.432;8.680;2023-04-21T19:13:13;15.03;;;13.83;;
10230;SDS011;62604;49.432;8.680;2023-04-21T19:15:42;14.53;;;13.43;;
10230;SDS011;62604;49.432;8.680;2023-04-21T19:18:09;14.13;;;13.03;;
10230;SDS011;62604;49.432;8.680;2023-04-21T19:20:36;14.40;;;13.30;;
10230;SDS011;62604;49.432;8.680;2023-04-21T19:23:03;14.00;;;13.00;;
10230;SDS011;62604;49.432;8.680;2023-04-21T19:25:30;13.90;;;12.90;;
10230;SDS011;62604;49.432;8.680;2023-04-21T19:27:58;13.70;;;12.70;;
10230;SDS011;62604;49.432;8.680;2023-04-21T19:30:26;13.37;;;12.27;;
10230;SDS011;62604;49.432;8.680;2023-04-21T19:32:54;13.53;;;12.63;;